createdAt,value
2022-08-26T00:00:21.622Z,48.19
2022-08-26T00:01:28.927Z,49.82
2022-08-26T00:02:22.675Z,55.50
2022-08-26T00:03:21.613Z,54.29
2022-08-26T00:04:21.621Z,52.65
2022-08-26T00:05:21.570Z,55.77
2022-08-26T00:06:21.575Z,49.14
2022-08-26T00:07:21.585Z,53.24
2022-08-26T00:08:21.569Z,51.39
2022-08-26T00:09:21.526Z,48.96
2022-08-26T00:10:21.617Z,51.37
2022-08-26T00:11:26.577Z,47.86
2022-08-26T00:12:35.892Z,51.21
2022-08-26T00:13:22.455Z,48.15
2022-08-26T00:14:21.540Z,47.41
2022-08-26T00:15:21.507Z,47.54
2022-08-26T00:16:21.519Z,49.53
2022-08-26T00:17:21.473Z,51.66
2022-08-26T00:18:22.139Z,50.55
2022-08-26T00:19:21.475Z,58.06
2022-08-26T00:20:21.437Z,54.40
2022-08-26T00:21:21.462Z,48.31
2022-08-26T00:22:21.704Z,48.31
2022-08-26T00:23:24.119Z,47.11
2022-08-26T00:24:21.469Z,49.30
2022-08-26T00:25:21.412Z,53.65
2022-08-26T00:26:21.393Z,54.06
2022-08-26T00:27:21.417Z,52.81
2022-08-26T00:28:21.566Z,51.74
2022-08-26T00:29:21.452Z,53.53
2022-08-26T00:30:22.917Z,50.49
2022-08-26T00:31:21.357Z,48.56
2022-08-26T00:32:21.285Z,49.38
2022-08-26T00:33:21.297Z,54.32
2022-08-26T00:34:21.293Z,55.10
2022-08-26T00:35:21.333Z,57.67
2022-08-26T00:36:21.264Z,56.30
2022-08-26T00:37:21.275Z,52.72
2022-08-26T00:38:21.258Z,48.78
2022-08-26T00:39:21.238Z,51.51
2022-08-26T00:40:21.352Z,53.56
2022-08-26T00:41:21.211Z,52.40
2022-08-26T00:42:21.212Z,50.26
2022-08-26T00:43:21.210Z,53.64
2022-08-26T00:44:21.210Z,47.51
2022-08-26T00:45:21.281Z,46.62
2022-08-26T00:46:21.230Z,48.07
2022-08-26T00:47:21.184Z,54.55
2022-08-26T00:48:21.232Z,57.38
2022-08-26T00:49:21.224Z,50.50
2022-08-26T00:50:21.223Z,49.96
2022-08-26T00:51:21.261Z,53.05
2022-08-26T00:52:21.281Z,50.60
2022-08-26T00:53:21.197Z,55.00
2022-08-26T00:54:21.253Z,53.03
2022-08-26T00:55:21.197Z,54.30
2022-08-26T00:56:21.317Z,52.26
2022-08-26T00:57:21.176Z,54.04
2022-08-26T00:58:21.167Z,49.66
2022-08-26T00:59:21.150Z,46.31
2022-08-26T01:00:21.157Z,48.63
2022-08-26T01:01:23.019Z,49.45
2022-08-26T01:02:21.830Z,54.02
2022-08-26T01:03:21.151Z,53.08
2022-08-26T01:04:21.139Z,52.19
2022-08-26T01:05:21.113Z,49.83
2022-08-26T01:06:21.073Z,54.48
2022-08-26T01:07:21.135Z,52.63
2022-08-26T01:08:21.099Z,53.30
2022-08-26T01:09:21.100Z,57.59
2022-08-26T01:10:21.064Z,53.75
2022-08-26T01:11:21.067Z,54.88
2022-08-26T01:12:22.350Z,47.66
2022-08-26T01:13:20.995Z,49.25
2022-08-26T01:14:20.989Z,48.97
2022-08-26T01:15:20.969Z,51.85
2022-08-26T01:16:20.998Z,52.26
2022-08-26T01:17:21.023Z,53.61
2022-08-26T01:18:20.955Z,52.06
2022-08-26T01:19:20.972Z,51.06
2022-08-26T01:20:20.930Z,55.38
2022-08-26T01:21:20.925Z,52.76
2022-08-26T01:22:22.250Z,48.05
2022-08-26T01:23:21.926Z,53.38
2022-08-26T01:24:20.913Z,54.94
2022-08-26T01:25:20.987Z,54.51
2022-08-26T01:26:20.991Z,54.01
2022-08-26T01:27:21.014Z,54.64
2022-08-26T01:28:21.024Z,48.23
2022-08-26T01:29:20.971Z,54.02
2022-08-26T01:30:20.955Z,50.17
2022-08-26T01:31:21.061Z,54.65
2022-08-26T01:32:20.910Z,50.02
2022-08-26T01:33:20.971Z,45.75
2022-08-26T01:34:20.923Z,48.86
2022-08-26T01:35:20.897Z,46.25
2022-08-26T01:36:20.916Z,47.09
2022-08-26T01:37:20.889Z,59.31
2022-08-26T01:38:20.934Z,50.41
2022-08-26T01:39:20.896Z,54.07
2022-08-26T01:40:21.012Z,51.88
2022-08-26T01:41:27.175Z,47.24
2022-08-26T01:42:21.949Z,56.32
2022-08-26T01:43:20.862Z,48.44
2022-08-26T01:44:20.898Z,52.38
2022-08-26T01:45:20.838Z,53.03
2022-08-26T01:46:20.751Z,49.66
2022-08-26T01:47:20.815Z,48.79
2022-08-26T01:48:20.832Z,51.67
2022-08-26T01:49:20.916Z,53.61
2022-08-26T01:50:27.614Z,52.22
2022-08-26T01:51:21.817Z,46.88
2022-08-26T01:52:20.786Z,53.58
2022-08-26T01:53:21.469Z,52.28
2022-08-26T01:54:20.867Z,49.15
2022-08-26T01:55:32.372Z,47.16
2022-08-26T01:56:21.683Z,55.27
2022-08-26T01:57:20.690Z,51.56
2022-08-26T01:58:20.675Z,55.43
2022-08-26T01:59:20.673Z,50.87
2022-08-26T02:00:20.706Z,52.27
2022-08-26T02:01:20.701Z,49.58
2022-08-26T02:02:20.656Z,49.94
2022-08-26T02:03:20.633Z,49.05
2022-08-26T02:04:20.680Z,52.05
2022-08-26T02:05:20.648Z,51.39
2022-08-26T02:06:20.712Z,52.81
2022-08-26T02:07:21.522Z,56.60
2022-08-26T02:08:24.909Z,54.81
2022-08-26T02:09:20.641Z,55.56
2022-08-26T02:10:20.790Z,52.14
2022-08-26T02:11:20.672Z,50.67
2022-08-26T02:12:20.650Z,56.70
2022-08-26T02:13:20.640Z,53.78
2022-08-26T02:14:20.662Z,54.77
2022-08-26T02:15:20.683Z,58.05
2022-08-26T02:16:20.715Z,53.82
2022-08-26T02:17:21.258Z,50.97
2022-08-26T02:18:20.621Z,48.03
2022-08-26T02:19:20.600Z,52.02
2022-08-26T02:20:20.591Z,51.20
2022-08-26T02:21:20.592Z,52.81
2022-08-26T02:22:20.635Z,55.44
2022-08-26T02:23:20.545Z,56.29
2022-08-26T02:24:20.589Z,57.21
2022-08-26T02:25:20.549Z,53.52
2022-08-26T02:26:20.677Z,52.22
2022-08-26T02:27:20.528Z,52.30
2022-08-26T02:28:20.514Z,51.61
2022-08-26T02:29:20.491Z,55.25
2022-08-26T02:30:20.523Z,51.90
2022-08-26T02:31:20.544Z,53.30
2022-08-26T02:32:20.558Z,50.15
2022-08-26T02:33:20.493Z,55.26
2022-08-26T02:34:20.507Z,54.13
2022-08-26T02:35:20.506Z,47.71
2022-08-26T02:36:20.475Z,48.53
2022-08-26T02:37:20.510Z,49.47
2022-08-26T02:38:20.442Z,56.90
2022-08-26T02:39:22.126Z,54.23
2022-08-26T02:40:20.487Z,55.21
2022-08-26T02:41:20.472Z,55.54
2022-08-26T02:42:20.452Z,54.52
2022-08-26T02:43:31.504Z,53.10
2022-08-26T02:44:21.414Z,55.17
2022-08-26T02:45:23.335Z,55.36
2022-08-26T02:46:21.498Z,54.17
2022-08-26T02:47:21.392Z,53.19
2022-08-26T02:48:20.316Z,49.87
2022-08-26T02:49:20.314Z,51.38
2022-08-26T02:50:20.282Z,51.44
2022-08-26T02:51:20.296Z,53.89
2022-08-26T02:52:20.265Z,51.62
2022-08-26T02:53:25.050Z,51.21
2022-08-26T02:54:22.254Z,55.88
2022-08-26T02:55:20.260Z,53.86
2022-08-26T02:56:20.256Z,54.96
2022-08-26T02:57:20.249Z,53.45
2022-08-26T02:58:20.286Z,51.06
2022-08-26T02:59:20.258Z,55.31
2022-08-26T03:00:20.327Z,53.14
2022-08-26T03:01:20.307Z,54.05
2022-08-26T03:02:20.237Z,54.35
2022-08-26T03:03:20.269Z,57.24
2022-08-26T03:04:20.196Z,52.31
2022-08-26T03:05:20.274Z,52.41
2022-08-26T03:06:20.238Z,53.47
2022-08-26T03:07:20.246Z,54.55
2022-08-26T03:08:20.308Z,55.04
2022-08-26T03:09:20.213Z,52.54
2022-08-26T03:10:20.277Z,55.62
2022-08-26T03:11:20.181Z,55.30
2022-08-26T03:12:20.227Z,57.38
2022-08-26T03:13:20.215Z,52.74
2022-08-26T03:14:20.233Z,53.43
2022-08-26T03:15:20.187Z,55.57
2022-08-26T03:16:20.244Z,53.07
2022-08-26T03:17:20.151Z,55.26
2022-08-26T03:18:20.553Z,56.00
2022-08-26T03:19:20.223Z,56.63
2022-08-26T03:20:20.169Z,54.15
2022-08-26T03:21:20.156Z,50.95
2022-08-26T03:22:20.550Z,55.80
2022-08-26T03:23:20.153Z,55.95
2022-08-26T03:24:20.172Z,54.32
2022-08-26T03:25:20.096Z,58.61
2022-08-26T03:26:20.105Z,55.83
2022-08-26T03:27:20.142Z,55.96
2022-08-26T03:28:20.119Z,56.38
2022-08-26T03:29:20.154Z,55.90
2022-08-26T03:30:20.159Z,55.17
2022-08-26T03:31:20.196Z,56.28
2022-08-26T03:32:20.049Z,55.06
2022-08-26T03:33:20.145Z,57.89
2022-08-26T03:34:20.076Z,55.86
2022-08-26T03:35:20.100Z,55.72
2022-08-26T03:36:20.035Z,56.08
2022-08-26T03:37:20.037Z,56.42
2022-08-26T03:38:20.017Z,56.00
2022-08-26T03:39:20.021Z,55.36
2022-08-26T03:40:20.274Z,56.76
2022-08-26T03:41:19.976Z,59.57
2022-08-26T03:42:21.525Z,54.62
2022-08-26T03:43:20.007Z,58.40
2022-08-26T03:44:19.990Z,57.16
2022-08-26T03:45:19.975Z,56.75
2022-08-26T03:46:20.056Z,56.62
2022-08-26T03:47:19.962Z,58.17
2022-08-26T03:48:19.932Z,57.71
2022-08-26T03:49:19.923Z,57.09
2022-08-26T03:50:22.911Z,60.81
2022-08-26T03:51:19.972Z,59.03
2022-08-26T03:52:19.944Z,57.67
2022-08-26T03:53:20.539Z,56.69
2022-08-26T03:54:19.986Z,56.71
2022-08-26T03:55:19.926Z,60.32
2022-08-26T03:56:19.913Z,58.92
2022-08-26T03:57:19.875Z,57.24
2022-08-26T03:58:19.876Z,57.02
2022-08-26T03:59:19.893Z,58.67
2022-08-26T04:00:19.855Z,56.67
2022-08-26T04:01:19.915Z,58.87
2022-08-26T04:02:19.911Z,58.96
2022-08-26T04:03:19.827Z,60.27
2022-08-26T04:04:22.733Z,58.15
2022-08-26T04:05:19.755Z,58.63
2022-08-26T04:06:19.753Z,57.76
2022-08-26T04:07:19.763Z,55.73
2022-08-26T04:08:19.723Z,56.05
2022-08-26T04:09:19.790Z,57.31
2022-08-26T04:10:20.413Z,58.51
2022-08-26T04:11:19.725Z,60.14
2022-08-26T04:12:19.824Z,59.95
2022-08-26T04:13:19.764Z,57.45
2022-08-26T04:14:20.195Z,58.92
2022-08-26T04:15:19.787Z,62.09
2022-08-26T04:16:19.798Z,60.29
2022-08-26T04:17:19.751Z,60.43
2022-08-26T04:18:20.707Z,60.91
2022-08-26T04:19:19.717Z,61.96
2022-08-26T04:20:19.717Z,58.84
2022-08-26T04:21:19.724Z,59.13
2022-08-26T04:22:24.406Z,61.70
2022-08-26T04:23:20.772Z,59.73
2022-08-26T04:24:19.710Z,61.22
2022-08-26T04:25:20.612Z,62.85
2022-08-26T04:26:19.729Z,59.25
2022-08-26T04:27:19.697Z,61.16
2022-08-26T04:28:19.688Z,61.36
2022-08-26T04:29:19.665Z,59.72
2022-08-26T04:30:19.677Z,60.31
2022-08-26T04:31:19.742Z,58.98
2022-08-26T04:32:19.645Z,58.18
2022-08-26T04:33:19.646Z,62.40
2022-08-26T04:34:20.632Z,60.80
2022-08-26T04:35:25.827Z,61.53
2022-08-26T04:36:21.638Z,60.68
2022-08-26T04:37:19.591Z,61.02
2022-08-26T04:38:19.586Z,62.59
2022-08-26T04:39:19.612Z,61.68
2022-08-26T04:40:19.637Z,61.75
2022-08-26T04:41:19.551Z,64.33
2022-08-26T04:42:25.875Z,63.53
2022-08-26T04:43:21.532Z,62.88
2022-08-26T04:44:19.539Z,62.89
2022-08-26T04:45:22.898Z,61.36
2022-08-26T04:46:19.488Z,63.15
2022-08-26T04:47:19.589Z,62.77
2022-08-26T04:48:19.494Z,62.99
2022-08-26T04:49:19.488Z,63.45
2022-08-26T04:50:19.601Z,59.76
2022-08-26T04:51:19.498Z,63.82
2022-08-26T04:52:19.555Z,61.81
2022-08-26T04:53:19.461Z,63.47
2022-08-26T04:54:19.543Z,61.74
2022-08-26T04:55:19.582Z,60.31
2022-08-26T04:56:19.440Z,60.37
2022-08-26T04:57:19.459Z,59.52
2022-08-26T04:58:19.419Z,58.72
2022-08-26T04:59:19.453Z,59.56
2022-08-26T05:00:19.425Z,57.90
2022-08-26T05:01:19.526Z,57.73
2022-08-26T05:02:20.220Z,58.18
2022-08-26T05:03:19.365Z,60.78
2022-08-26T05:04:19.384Z,59.11
2022-08-26T05:05:19.324Z,61.17
2022-08-26T05:06:19.329Z,60.63
2022-08-26T05:07:19.332Z,59.34
2022-08-26T05:08:19.318Z,61.20
2022-08-26T05:09:19.278Z,62.31
2022-08-26T05:10:19.393Z,60.53
2022-08-26T05:11:19.352Z,58.20
2022-08-26T05:12:19.289Z,59.25
2022-08-26T05:13:20.554Z,59.90
2022-08-26T05:14:19.227Z,60.29
2022-08-26T05:15:19.247Z,58.45
2022-08-26T05:16:19.336Z,61.29
2022-08-26T05:17:19.344Z,60.15
2022-08-26T05:18:19.997Z,59.21
2022-08-26T05:19:19.620Z,57.94
2022-08-26T05:20:22.644Z,58.98
2022-08-26T05:21:21.236Z,59.39
2022-08-26T05:22:19.279Z,60.73
2022-08-26T05:23:19.252Z,60.64
2022-08-26T05:24:19.265Z,59.53
2022-08-26T05:25:19.241Z,59.05
2022-08-26T05:26:23.066Z,60.28
2022-08-26T05:27:19.285Z,61.38
2022-08-26T05:28:19.250Z,59.94
2022-08-26T05:29:19.234Z,59.77
2022-08-26T05:30:19.244Z,60.79
2022-08-26T05:31:19.232Z,62.04
2022-08-26T05:32:19.169Z,61.92
2022-08-26T05:33:19.294Z,61.85
2022-08-26T05:34:19.218Z,61.89
2022-08-26T05:35:19.220Z,62.41
2022-08-26T05:36:19.227Z,62.05
2022-08-26T05:37:19.134Z,63.17
2022-08-26T05:38:19.649Z,60.36
2022-08-26T05:39:19.152Z,60.49
2022-08-26T05:40:19.190Z,60.49
2022-08-26T05:41:19.189Z,61.00
2022-08-26T05:42:19.113Z,61.92
2022-08-26T05:43:19.161Z,63.19
2022-08-26T05:44:19.100Z,60.78
2022-08-26T05:45:19.086Z,60.16
2022-08-26T05:46:20.105Z,58.59
2022-08-26T05:47:19.095Z,57.48
2022-08-26T05:48:19.085Z,60.37
2022-08-26T05:49:20.119Z,60.78
2022-08-26T05:50:19.073Z,59.98
2022-08-26T05:51:22.791Z,57.74
2022-08-26T05:52:20.062Z,58.04
2022-08-26T05:53:19.058Z,62.94
2022-08-26T05:54:22.011Z,67.76
2022-08-26T05:55:19.081Z,64.98
2022-08-26T05:56:19.032Z,66.60
2022-08-26T05:57:19.073Z,69.32
2022-08-26T05:58:19.014Z,59.19
2022-08-26T05:59:24.147Z,57.91
2022-08-26T06:00:20.021Z,59.00
2022-08-26T06:01:19.001Z,60.05
2022-08-26T06:02:18.953Z,62.26
2022-08-26T06:03:19.002Z,67.02
2022-08-26T06:04:18.907Z,75.13
2022-08-26T06:05:18.902Z,63.33
2022-08-26T06:06:20.147Z,59.12
2022-08-26T06:07:19.856Z,59.49
2022-08-26T06:08:19.328Z,60.51
2022-08-26T06:09:18.838Z,60.43
2022-08-26T06:10:32.098Z,58.40
2022-08-26T06:11:20.835Z,59.70
2022-08-26T06:12:18.867Z,58.50
2022-08-26T06:13:18.841Z,58.67
2022-08-26T06:14:18.797Z,59.46
2022-08-26T06:15:18.883Z,57.43
2022-08-26T06:16:18.854Z,61.20
2022-08-26T06:17:18.803Z,57.59
2022-08-26T06:18:18.787Z,55.72
2022-08-26T06:19:18.780Z,58.10
2022-08-26T06:20:18.764Z,56.92
2022-08-26T06:21:19.670Z,59.41
2022-08-26T06:22:23.342Z,58.63
2022-08-26T06:23:20.765Z,57.32
2022-08-26T06:24:18.760Z,54.67
2022-08-26T06:25:18.786Z,56.20
2022-08-26T06:26:18.871Z,56.18
2022-08-26T06:27:18.795Z,54.83
2022-08-26T06:28:18.781Z,55.08
2022-08-26T06:29:24.327Z,55.14
2022-08-26T06:30:19.714Z,55.38
2022-08-26T06:31:18.898Z,57.31
2022-08-26T06:32:18.807Z,57.07
2022-08-26T06:33:18.742Z,59.12
2022-08-26T06:34:18.780Z,55.76
2022-08-26T06:35:18.753Z,55.96
2022-08-26T06:36:18.790Z,54.58
2022-08-26T06:37:18.754Z,56.37
2022-08-26T06:38:18.758Z,56.80
2022-08-26T06:39:18.696Z,56.20
2022-08-26T06:40:18.748Z,55.85
2022-08-26T06:41:18.723Z,58.66
2022-08-26T06:42:18.757Z,56.96
2022-08-26T06:43:18.755Z,56.87
2022-08-26T06:44:18.691Z,54.72
2022-08-26T06:45:18.744Z,54.06
2022-08-26T06:46:18.623Z,56.88
2022-08-26T06:47:19.840Z,55.81
2022-08-26T06:48:18.657Z,54.57
2022-08-26T06:49:25.739Z,52.35
2022-08-26T06:50:19.662Z,54.96
2022-08-26T06:51:18.617Z,53.20
2022-08-26T06:52:22.944Z,55.60
2022-08-26T06:53:20.663Z,55.12
2022-08-26T06:54:18.580Z,56.45
2022-08-26T06:55:18.617Z,57.69
2022-08-26T06:56:18.584Z,60.32
2022-08-26T06:57:18.606Z,54.18
2022-08-26T06:58:18.612Z,54.70
2022-08-26T06:59:18.558Z,54.23
2022-08-26T07:00:18.601Z,51.66
2022-08-26T07:01:18.570Z,53.82
2022-08-26T07:02:18.597Z,57.47
2022-08-26T07:03:18.603Z,56.07
2022-08-26T07:04:22.098Z,55.07
2022-08-26T07:05:18.520Z,52.23
2022-08-26T07:06:18.559Z,53.68
2022-08-26T07:07:18.530Z,57.62
2022-08-26T07:08:18.629Z,52.10
2022-08-26T07:09:18.499Z,55.15
2022-08-26T07:10:18.494Z,56.00
2022-08-26T07:11:18.517Z,51.22
2022-08-26T07:12:18.481Z,55.12
2022-08-26T07:13:29.920Z,53.58
2022-08-26T07:14:21.630Z,57.68
2022-08-26T07:15:18.383Z,54.41
2022-08-26T07:16:19.433Z,52.27
2022-08-26T07:17:18.362Z,52.08
2022-08-26T07:18:18.402Z,55.91
2022-08-26T07:19:18.378Z,53.78
2022-08-26T07:20:19.397Z,51.12
2022-08-26T07:21:18.426Z,53.26
2022-08-26T07:22:18.345Z,55.58
2022-08-26T07:23:18.336Z,51.60
2022-08-26T07:24:18.351Z,52.77
2022-08-26T07:25:19.244Z,53.75
2022-08-26T07:26:18.275Z,54.35
2022-08-26T07:27:18.329Z,57.44
2022-08-26T07:28:18.297Z,50.72
2022-08-26T07:29:18.327Z,53.49
2022-08-26T07:30:18.273Z,54.42
2022-08-26T07:31:18.372Z,53.29
2022-08-26T07:32:18.266Z,54.94
2022-08-26T07:33:18.285Z,55.45
2022-08-26T07:34:18.356Z,57.05
2022-08-26T07:35:18.336Z,55.91
2022-08-26T07:36:18.392Z,53.89
2022-08-26T07:37:18.352Z,57.20
2022-08-26T07:38:18.399Z,58.61
2022-08-26T07:39:18.351Z,57.08
2022-08-26T07:40:18.432Z,58.18
2022-08-26T07:41:18.346Z,58.28
2022-08-26T07:42:18.506Z,58.10
2022-08-26T07:43:18.270Z,58.87
2022-08-26T07:44:18.300Z,58.37
2022-08-26T07:45:18.346Z,56.16
2022-08-26T07:46:18.179Z,55.14
2022-08-26T07:47:25.859Z,57.27
2022-08-26T07:48:19.163Z,54.79
2022-08-26T07:49:18.271Z,55.94
2022-08-26T07:50:18.336Z,56.01
2022-08-26T07:51:18.249Z,56.42
2022-08-26T07:52:20.664Z,53.82
2022-08-26T07:53:19.435Z,56.04
2022-08-26T07:54:18.290Z,49.95
2022-08-26T07:55:18.161Z,53.90
2022-08-26T07:56:18.291Z,52.21
2022-08-26T07:57:19.164Z,53.93
2022-08-26T07:58:18.155Z,54.06
2022-08-26T07:59:18.172Z,55.76
2022-08-26T08:00:18.205Z,54.19
2022-08-26T08:01:18.283Z,55.32
2022-08-26T08:02:18.137Z,54.22
2022-08-26T08:03:18.138Z,54.12
2022-08-26T08:04:18.427Z,54.87
2022-08-26T08:05:18.214Z,53.50
2022-08-26T08:06:18.142Z,54.63
2022-08-26T08:07:18.109Z,54.08
2022-08-26T08:08:27.077Z,56.73
2022-08-26T08:09:19.158Z,54.19
2022-08-26T08:10:18.055Z,52.11
2022-08-26T08:11:18.106Z,51.95
2022-08-26T08:12:18.094Z,52.31
2022-08-26T08:13:18.091Z,54.93
2022-08-26T08:14:18.045Z,53.44
2022-08-26T08:15:18.078Z,53.88
2022-08-26T08:16:18.058Z,54.21
2022-08-26T08:17:18.105Z,51.71
2022-08-26T08:18:18.044Z,53.27
2022-08-26T08:19:18.051Z,53.78
2022-08-26T08:20:17.994Z,52.16
2022-08-26T08:21:21.924Z,51.51
2022-08-26T08:22:20.032Z,51.27
2022-08-26T08:23:17.996Z,51.63
2022-08-26T08:24:18.010Z,51.35
2022-08-26T08:25:18.011Z,50.85
2022-08-26T08:26:18.001Z,51.00
2022-08-26T08:27:22.829Z,49.57
2022-08-26T08:28:18.988Z,51.96
2022-08-26T08:29:18.043Z,50.42
2022-08-26T08:30:20.895Z,50.57
2022-08-26T08:31:19.213Z,49.49
2022-08-26T08:32:18.882Z,46.04
2022-08-26T08:33:17.839Z,47.02
2022-08-26T08:34:18.221Z,46.03
2022-08-26T08:35:17.865Z,50.10
2022-08-26T08:36:18.602Z,51.92
2022-08-26T08:37:17.798Z,55.46
2022-08-26T08:38:17.807Z,56.12
2022-08-26T08:39:17.823Z,55.61
2022-08-26T08:40:17.863Z,52.98
2022-08-26T08:41:17.792Z,52.36
2022-08-26T08:42:17.764Z,47.73
2022-08-26T08:43:18.381Z,53.31
2022-08-26T08:44:17.802Z,52.58
2022-08-26T08:45:18.382Z,49.65
2022-08-26T08:46:17.812Z,47.66
2022-08-26T08:47:17.830Z,48.93
2022-08-26T08:48:17.800Z,51.56
2022-08-26T08:49:17.855Z,49.18
2022-08-26T08:50:17.815Z,48.48
2022-08-26T08:51:17.776Z,49.83
2022-08-26T08:52:17.768Z,49.95
2022-08-26T08:53:17.792Z,50.89
2022-08-26T08:54:17.788Z,50.07
2022-08-26T08:55:18.229Z,50.61
2022-08-26T08:56:18.759Z,52.10
2022-08-26T08:57:17.776Z,53.83
2022-08-26T08:58:19.150Z,47.13
2022-08-26T08:59:17.958Z,52.59
2022-08-26T09:00:17.851Z,48.85
2022-08-26T09:01:17.784Z,51.78
2022-08-26T09:02:17.744Z,53.36
2022-08-26T09:03:17.672Z,51.32
2022-08-26T09:04:17.678Z,52.85
2022-08-26T09:05:17.704Z,49.94
2022-08-26T09:06:17.697Z,49.68
2022-08-26T09:07:17.656Z,50.39
2022-08-26T09:08:19.830Z,50.14
2022-08-26T09:09:17.654Z,51.78
2022-08-26T09:10:17.750Z,47.94
2022-08-26T09:11:17.668Z,49.74
2022-08-26T09:12:17.636Z,49.20
2022-08-26T09:13:24.867Z,49.65
2022-08-26T09:14:18.631Z,50.46
2022-08-26T09:15:17.663Z,52.82
2022-08-26T09:16:19.123Z,51.40
2022-08-26T09:17:17.586Z,51.44
2022-08-26T09:18:17.629Z,48.41
2022-08-26T09:19:18.799Z,51.26
2022-08-26T09:20:17.700Z,53.90
2022-08-26T09:21:17.909Z,52.23
2022-08-26T09:22:17.665Z,52.61
2022-08-26T09:23:18.143Z,50.55
2022-08-26T09:24:18.132Z,49.85
2022-08-26T09:25:18.626Z,51.00
2022-08-26T09:26:17.577Z,50.18
2022-08-26T09:27:17.508Z,49.11
2022-08-26T09:28:17.568Z,50.75
2022-08-26T09:29:17.573Z,50.63
2022-08-26T09:30:17.631Z,50.94
2022-08-26T09:31:17.579Z,51.17
2022-08-26T09:32:17.473Z,50.27
2022-08-26T09:33:17.533Z,49.32
2022-08-26T09:34:17.871Z,48.78
2022-08-26T09:35:17.472Z,47.67
2022-08-26T09:36:17.461Z,46.75
2022-08-26T09:37:17.516Z,48.86
2022-08-26T09:38:17.453Z,47.44
2022-08-26T09:39:17.442Z,49.35
2022-08-26T09:40:17.583Z,53.50
2022-08-26T09:41:17.458Z,52.29
2022-08-26T09:42:17.463Z,55.12
2022-08-26T09:43:21.997Z,51.83
2022-08-26T09:44:18.427Z,54.70
2022-08-26T09:45:17.396Z,54.80
2022-08-26T09:46:17.417Z,54.41
2022-08-26T09:47:17.621Z,53.32
2022-08-26T09:48:17.303Z,51.64
2022-08-26T09:49:17.336Z,51.57
2022-08-26T09:50:17.284Z,52.98
2022-08-26T09:51:17.276Z,53.79
2022-08-26T09:52:17.298Z,51.24
2022-08-26T09:53:20.997Z,51.16
2022-08-26T09:54:20.664Z,52.30
2022-08-26T09:55:17.298Z,50.97
2022-08-26T09:56:17.327Z,52.75
2022-08-26T09:57:17.288Z,50.64
2022-08-26T09:58:17.334Z,53.05
2022-08-26T09:59:18.953Z,53.58
2022-08-26T10:00:17.235Z,53.74
2022-08-26T10:01:17.385Z,54.89
2022-08-26T10:02:17.213Z,53.51
2022-08-26T10:03:17.491Z,54.53
2022-08-26T10:04:17.342Z,52.35
2022-08-26T10:05:17.228Z,53.66
2022-08-26T10:06:17.303Z,53.33
2022-08-26T10:07:17.259Z,53.01
2022-08-26T10:08:17.336Z,51.08
2022-08-26T10:09:17.246Z,53.40
2022-08-26T10:10:17.275Z,53.43
2022-08-26T10:11:17.235Z,50.26
2022-08-26T10:12:17.232Z,51.15
2022-08-26T10:13:17.184Z,50.46
2022-08-26T10:14:17.250Z,49.25
2022-08-26T10:15:17.224Z,51.90
2022-08-26T10:16:17.259Z,50.33
2022-08-26T10:17:17.176Z,46.64
2022-08-26T10:18:17.162Z,48.67
2022-08-26T10:19:17.210Z,49.41
2022-08-26T10:20:23.177Z,52.66
2022-08-26T10:21:18.214Z,49.91
2022-08-26T10:22:17.130Z,54.52
2022-08-26T10:23:17.113Z,56.04
2022-08-26T10:24:18.154Z,54.25
2022-08-26T10:25:17.107Z,52.16
2022-08-26T10:26:17.215Z,52.66
2022-08-26T10:27:17.139Z,52.68
2022-08-26T10:28:17.159Z,50.98
2022-08-26T10:29:17.171Z,53.44
2022-08-26T10:30:17.050Z,53.07
2022-08-26T10:31:17.138Z,52.84
2022-08-26T10:32:17.098Z,55.00
2022-08-26T10:33:18.164Z,53.10
2022-08-26T10:34:17.078Z,55.45
2022-08-26T10:35:17.127Z,55.13
2022-08-26T10:36:17.044Z,54.79
2022-08-26T10:37:17.092Z,52.72
2022-08-26T10:38:17.015Z,51.32
2022-08-26T10:39:17.010Z,53.02
2022-08-26T10:40:17.058Z,53.70
2022-08-26T10:41:18.218Z,51.90
2022-08-26T10:42:17.013Z,51.57
2022-08-26T10:43:16.990Z,50.39
2022-08-26T10:44:16.960Z,48.02
2022-08-26T10:45:16.990Z,52.05
2022-08-26T10:46:17.087Z,54.76
2022-08-26T10:47:16.887Z,54.37
2022-08-26T10:48:16.872Z,54.97
2022-08-26T10:49:16.910Z,52.84
2022-08-26T10:50:18.171Z,56.61
2022-08-26T10:51:16.897Z,54.57
2022-08-26T10:52:16.917Z,53.05
2022-08-26T10:53:16.850Z,53.52
2022-08-26T10:54:16.862Z,52.09
2022-08-26T10:55:16.840Z,48.80
2022-08-26T10:56:19.171Z,50.56
2022-08-26T10:57:16.833Z,49.51
2022-08-26T10:58:26.120Z,50.24
2022-08-26T10:59:17.786Z,52.82
2022-08-26T11:00:17.788Z,48.79
2022-08-26T11:01:16.968Z,54.01
2022-08-26T11:02:21.547Z,54.24
2022-08-26T11:03:22.415Z,57.11
2022-08-26T11:04:17.806Z,51.92
2022-08-26T11:05:16.878Z,53.46
2022-08-26T11:06:17.583Z,53.88
2022-08-26T11:07:16.848Z,54.67
2022-08-26T11:08:16.833Z,55.37
2022-08-26T11:09:16.954Z,52.62
2022-08-26T11:10:16.904Z,53.99
2022-08-26T11:11:16.860Z,53.05
2022-08-26T11:12:16.868Z,54.17
2022-08-26T11:13:16.808Z,51.04
2022-08-26T11:14:16.803Z,50.60
2022-08-26T11:15:17.711Z,52.53
2022-08-26T11:16:16.837Z,55.02
2022-08-26T11:17:16.832Z,53.21
2022-08-26T11:18:16.804Z,52.62
2022-08-26T11:19:16.790Z,50.99
2022-08-26T11:20:16.834Z,50.06
2022-08-26T11:21:16.747Z,51.50
2022-08-26T11:22:17.842Z,51.47
2022-08-26T11:23:16.772Z,51.86
2022-08-26T11:24:16.811Z,51.96
2022-08-26T11:25:18.256Z,52.26
2022-08-26T11:26:35.679Z,53.12
2022-08-26T11:27:17.649Z,53.52
2022-08-26T11:28:16.774Z,55.45
2022-08-26T11:29:16.688Z,55.11
2022-08-26T11:30:18.415Z,52.77
2022-08-26T11:31:16.779Z,53.41
2022-08-26T11:32:16.668Z,54.61
2022-08-26T11:33:16.781Z,53.77
2022-08-26T11:34:16.685Z,54.00
2022-08-26T11:35:16.655Z,52.48
2022-08-26T11:36:16.647Z,53.45
2022-08-26T11:37:16.701Z,55.54
2022-08-26T11:38:16.650Z,53.54
2022-08-26T11:39:16.634Z,53.19
2022-08-26T11:40:16.704Z,51.74
2022-08-26T11:41:16.620Z,54.34
2022-08-26T11:42:16.675Z,51.88
2022-08-26T11:43:16.704Z,54.13
2022-08-26T11:44:16.704Z,52.35
2022-08-26T11:45:16.501Z,52.28
2022-08-26T11:46:16.574Z,52.43
2022-08-26T11:47:16.544Z,52.24
2022-08-26T11:48:16.455Z,54.01
2022-08-26T11:49:16.567Z,52.86
2022-08-26T11:50:16.452Z,54.36
2022-08-26T11:51:16.436Z,53.99
2022-08-26T11:52:16.458Z,52.69
2022-08-26T11:53:16.503Z,53.14
2022-08-26T11:54:16.499Z,52.51
2022-08-26T11:55:16.468Z,54.15
2022-08-26T11:56:16.438Z,51.71
2022-08-26T11:57:16.435Z,53.76
2022-08-26T11:58:16.441Z,53.19
2022-08-26T11:59:16.400Z,49.79
2022-08-26T12:00:20.496Z,52.75
2022-08-26T12:01:18.436Z,54.45
2022-08-26T12:02:16.435Z,55.14
2022-08-26T12:03:16.462Z,53.76
2022-08-26T12:04:16.608Z,56.27
2022-08-26T12:05:16.559Z,52.84
2022-08-26T12:06:16.593Z,51.08
2022-08-26T12:07:16.508Z,50.54
2022-08-26T12:08:16.355Z,51.69
2022-08-26T12:09:16.444Z,53.30
2022-08-26T12:10:16.361Z,53.52
2022-08-26T12:11:16.457Z,53.70
2022-08-26T12:12:16.480Z,52.53
2022-08-26T12:13:16.421Z,51.38
2022-08-26T12:14:16.414Z,52.88
2022-08-26T12:15:16.463Z,51.23
2022-08-26T12:16:16.380Z,53.73
2022-08-26T12:17:16.417Z,53.01
2022-08-26T12:18:16.416Z,53.57
2022-08-26T12:19:16.421Z,55.03
2022-08-26T12:20:16.460Z,54.23
2022-08-26T12:21:16.440Z,56.11
2022-08-26T12:22:16.356Z,56.99
2022-08-26T12:23:16.357Z,58.93
2022-08-26T12:24:16.383Z,58.41
2022-08-26T12:25:16.331Z,56.60
2022-08-26T12:26:16.474Z,57.58
2022-08-26T12:27:16.331Z,56.55
2022-08-26T12:28:16.360Z,56.98
2022-08-26T12:29:26.604Z,54.20
2022-08-26T12:30:19.258Z,56.20
2022-08-26T12:31:16.399Z,59.51
2022-08-26T12:32:16.337Z,56.32
2022-08-26T12:33:22.421Z,54.82
2022-08-26T12:34:17.878Z,57.26
2022-08-26T12:35:16.355Z,57.14
2022-08-26T12:36:16.211Z,57.01
2022-08-26T12:37:16.260Z,57.09
2022-08-26T12:38:16.227Z,55.94
2022-08-26T12:39:16.241Z,57.43
2022-08-26T12:40:16.249Z,59.03
2022-08-26T12:41:16.155Z,55.97
2022-08-26T12:42:16.246Z,57.04
2022-08-26T12:43:16.213Z,57.23
2022-08-26T12:44:16.224Z,58.30
2022-08-26T12:45:16.209Z,60.16
2022-08-26T12:46:16.091Z,59.44
2022-08-26T12:47:16.272Z,59.17
2022-08-26T12:48:17.172Z,59.81
2022-08-26T12:49:16.056Z,58.94
2022-08-26T12:50:16.076Z,59.17
2022-08-26T12:51:16.069Z,58.75
2022-08-26T12:52:16.076Z,60.15